Time;durP1;ratioP1;P1;durP2;ratioP2;P2;SDS_P1;SDS_P2;PMS_P1;PMS_P2;Temp;Humidity;BMP_temperature;BMP_pressure;BME280_temperature;BME280_humidity;BME280_pressure;Samples;Min_cycle;Max_cycle;Signal;HPM_P1;HPM_P2
2022/12/18 00:00:46;;;;;;;16.90;9.80;;;13.60;91.40;;;;;;5072975;28;20045;-77
2022/12/18 00:03:13;;;;;;;19.02;9.73;;;13.60;91.40;;;;;;5073073;28;20164;-76
2022/12/18 00:05:49;;;;;;;17.23;9.48;;;13.60;91.40;;;;;;5073348;28;20033;-79
2022/12/18 00:08:16;;;;;;;20.10;11.55;;;13.50;91.40;;;;;;5054996;28;20137;-79
2022/12/18 00:10:43;;;;;;;22.52;10.95;;;13.60;91.50;;;;;;5071908;28;20080;-77
2022/12/18 00:13:09;;;;;;;18.75;11.23;;;13.60;91.50;;;;;;5054404;28;20091;-79
2022/12/18 00:15:35;;;;;;;18.42;11.00;;;13.50;91.40;;;;;;5072558;28;20033;-78
2022/12/18 00:18:01;;;;;;;17.73;10.60;;;13.50;91.50;;;;;;5054243;28;20052;-78
2022/12/18 00:20:27;;;;;;;17.35;10.60;;;13.40;91.40;;;;;;5072124;28;20064;-78
2022/12/18 00:22:53;;;;;;;19.92;11.13;;;13.40;91.60;;;;;;5054279;28;20537;-78
2022/12/18 00:25:19;;;;;;;15.02;10.48;;;13.30;91.50;;;;;;5072360;28;20095;-77
2022/12/18 00:27:45;;;;;;;19.48;10.70;;;13.20;91.50;;;;;;5054098;28;20064;-78
2022/12/18 00:30:11;;;;;;;16.75;10.45;;;13.20;91.60;;;;;;5054150;28;20064;-78
2022/12/18 00:32:37;;;;;;;17.90;10.38;;;13.20;91.60;;;;;;5072448;28;20037;-78
2022/12/18 00:35:03;;;;;;;17.63;10.10;;;13.20;91.70;;;;;;5071829;28;20078;-77
2022/12/18 00:37:29;;;;;;;15.40;9.75;;;13.20;91.70;;;;;;5072118;28;20060;-78
2022/12/18 00:39:55;;;;;;;18.38;10.48;;;13.10;91.70;;;;;;5054381;28;20108;-78
2022/12/18 00:43:21;;;;;;;15.98;11.43;;;13.20;91.70;;;;;;5054272;28;20033;-80
2022/12/18 00:45:15;;;;;;;18.08;10.93;;;13.10;91.70;;;;;;5058348;28;20442;-79
2022/12/18 00:47:41;;;;;;;17.75;10.65;;;13.10;91.70;;;;;;5071976;28;20025;-79
2022/12/18 00:50:07;;;;;;;17.77;10.77;;;13.10;91.80;;;;;;5054052;28;20040;-78
2022/12/18 00:52:33;;;;;;;14.82;10.07;;;13.20;91.80;;;;;;5054092;28;20112;-78
2022/12/18 00:54:58;;;;;;;19.30;10.77;;;13.20;91.80;;;;;;5072100;28;20186;-77
2022/12/18 00:57:24;;;;;;;16.45;10.63;;;13.20;91.80;;;;;;5053929;28;20036;-79
2022/12/18 00:59:50;;;;;;;20.15;10.80;;;13.20;91.80;;;;;;5053726;28;20048;-78
2022/12/18 01:02:15;;;;;;;19.58;11.32;;;13.20;91.80;;;;;;5072000;28;20051;-77
2022/12/18 01:04:41;;;;;;;16.15;10.65;;;13.20;91.80;;;;;;5053930;28;20380;-78
2022/12/18 01:07:07;;;;;;;20.25;10.65;;;13.20;91.80;;;;;;5053925;28;20048;-77
2022/12/18 01:09:32;;;;;;;18.23;10.98;;;13.10;91.90;;;;;;5071807;28;20029;-78
2022/12/18 01:11:58;;;;;;;17.90;10.73;;;13.10;91.90;;;;;;5071510;28;20028;-77
2022/12/18 01:14:24;;;;;;;13.57;9.73;;;13.10;91.80;;;;;;5071657;28;20064;-78
2022/12/18 01:16:49;;;;;;;18.60;10.70;;;13.10;91.90;;;;;;5053731;28;20025;-78
2022/12/18 01:19:15;;;;;;;18.83;11.13;;;13.00;91.90;;;;;;5071735;28;20147;-77
2022/12/18 01:21:41;;;;;;;18.88;10.55;;;13.00;91.90;;;;;;5056410;28;20040;-80
2022/12/18 01:24:06;;;;;;;20.60;10.93;;;12.90;91.90;;;;;;5057386;28;20040;-78
2022/12/18 01:26:32;;;;;;;17.52;10.63;;;12.90;92.00;;;;;;5075279;28;20094;-78
2022/12/18 01:28:58;;;;;;;17.23;10.60;;;12.90;91.90;;;;;;5057066;28;20071;-78
2022/12/18 01:31:30;;;;;;;14.75;10.38;;;12.80;92.00;;;;;;5057302;28;20029;-78
2022/12/18 01:33:55;;;;;;;18.45;11.90;;;12.80;92.00;;;;;;5057292;28;20074;-79
2022/12/18 01:36:27;;;;;;;17.85;11.68;;;12.80;92.00;;;;;;5075137;28;20078;-78
2022/12/18 01:38:53;;;;;;;20.20;11.88;;;12.80;92.10;;;;;;5057066;28;20039;-78
2022/12/18 01:42:01;;;;;;;18.50;11.63;;;12.80;92.10;;;;;;5056863;28;20068;-78
2022/12/18 01:44:50;;;;;;;19.30;12.13;;;12.80;92.10;;;;;;5074500;28;20563;-79
2022/12/18 01:47:37;;;;;;;19.23;12.15;;;12.80;92.20;;;;;;5057023;28;20071;-77
2022/12/18 01:50:12;;;;;;;19.60;12.45;;;12.80;92.10;;;;;;5056784;28;20413;-78
2022/12/18 01:52:40;;;;;;;18.65;13.00;;;12.80;92.10;;;;;;5074458;28;20070;-78
2022/12/18 01:55:07;;;;;;;20.70;13.35;;;12.80;92.20;;;;;;5056918;28;20477;-78
2022/12/18 01:57:34;;;;;;;18.58;12.60;;;12.70;92.30;;;;;;5074725;28;20423;-78
2022/12/18 02:00:04;;;;;;;22.05;13.02;;;12.70;92.20;;;;;;5074072;28;20049;-76
2022/12/18 02:02:30;;;;;;;20.15;13.55;;;12.70;92.20;;;;;;5056424;28;20029;-77
2022/12/18 02:04:56;;;;;;;17.25;12.25;;;12.70;92.20;;;;;;5056453;28;20045;-77
2022/12/18 02:07:30;;;;;;;19.70;13.38;;;12.70;92.30;;;;;;5056550;28;20060;-77
2022/12/18 02:10:08;;;;;;;18.90;14.18;;;12.70;92.30;;;;;;5074623;28;20044;-77
2022/12/18 02:12:43;;;;;;;22.40;13.43;;;12.70;92.40;;;;;;5056350;28;20028;-77
2022/12/18 02:15:24;;;;;;;22.42;13.77;;;12.70;92.40;;;;;;5056649;28;20036;-78
2022/12/18 02:18:01;;;;;;;21.25;14.25;;;12.60;92.60;;;;;;5074235;28;20020;-77
2022/12/18 02:20:38;;;;;;;22.63;13.93;;;12.60;92.50;;;;;;5056582;28;20032;-77
2022/12/18 02:23:25;;;;;;;23.05;13.77;;;12.60;92.60;;;;;;5056435;28;20172;-77
2022/12/18 02:26:14;;;;;;;18.60;12.98;;;12.60;92.60;;;;;;5036257;28;20053;-78
2022/12/18 02:29:15;;;;;;;19.85;14.30;;;12.50;92.60;;;;;;5036025;28;20395;-78
2022/12/18 02:31:50;;;;;;;20.65;14.40;;;12.60;92.60;;;;;;5032124;28;20558;-77
2022/12/18 02:34:18;;;;;;;21.23;14.43;;;12.50;92.70;;;;;;5036325;28;20128;-77
2022/12/18 02:36:45;;;;;;;18.10;14.18;;;12.50;92.60;;;;;;5054273;28;20040;-77
2022/12/18 02:39:13;;;;;;;23.95;15.10;;;12.50;92.70;;;;;;5052605;28;20057;-77
2022/12/18 02:41:39;;;;;;;19.88;13.43;;;12.50;92.70;;;;;;5035812;28;20095;-75
2022/12/18 02:44:13;;;;;;;18.30;13.50;;;12.40;92.60;;;;;;5053903;28;20091;-77
2022/12/18 02:46:56;;;;;;;17.85;12.93;;;12.40;92.80;;;;;;5053932;28;20033;-77
2022/12/18 02:49:53;;;;;;;20.02;13.52;;;12.40;92.70;;;;;;5053658;28;20036;-77
2022/12/18 02:52:34;;;;;;;22.23;13.48;;;12.50;92.70;;;;;;5035731;28;20090;-77
2022/12/18 02:55:24;;;;;;;21.30;13.93;;;12.50;92.80;;;;;;5053881;28;20037;-76
2022/12/18 02:57:56;;;;;;;19.70;13.25;;;12.50;92.70;;;;;;5035675;28;20030;-76
2022/12/18 03:00:28;;;;;;;19.90;13.65;;;12.50;92.90;;;;;;5035379;28;20052;-77
2022/12/18 03:03:06;;;;;;;19.88;13.55;;;12.50;92.80;;;;;;5053552;28;20139;-77
2022/12/18 03:05:49;;;;;;;19.42;13.48;;;12.50;92.80;;;;;;5035701;28;20060;-79
2022/12/18 03:08:22;;;;;;;16.05;10.35;;;12.50;92.80;;;;;;5053854;28;20057;-77
2022/12/18 03:11:09;;;;;;;18.47;13.27;;;12.50;93.00;;;;;;5035388;28;20040;-78
2022/12/18 03:13:55;;;;;;;20.75;13.43;;;12.50;93.10;;;;;;5035464;28;20481;-77
2022/12/18 03:16:25;;;;;;;19.95;13.05;;;12.50;92.80;;;;;;5035468;28;20036;-76
2022/12/18 03:18:57;;;;;;;20.00;13.15;;;12.40;93.00;;;;;;5053266;28;20029;-77
2022/12/18 03:21:28;;;;;;;21.38;14.32;;;12.40;92.90;;;;;;5053111;28;20515;-76
2022/12/18 03:23:55;;;;;;;20.45;12.77;;;12.40;93.00;;;;;;5035137;28;20056;-78
2022/12/18 03:26:24;;;;;;;17.88;12.70;;;12.40;93.00;;;;;;5052998;28;20068;-77
2022/12/18 03:28:56;;;;;;;19.48;13.45;;;12.40;93.10;;;;;;5035297;28;20044;-77
2022/12/18 03:31:26;;;;;;;19.45;12.77;;;12.40;93.40;;;;;;5053113;28;20031;-76
2022/12/18 03:34:15;;;;;;;17.33;12.80;;;12.40;93.20;;;;;;5052877;28;20463;-76
2022/12/18 03:36:40;;;;;;;18.00;12.25;;;12.40;93.20;;;;;;5051695;28;20492;-77
2022/12/18 03:39:07;;;;;;;19.42;11.90;;;12.40;93.10;;;;;;5052835;28;20048;-78
2022/12/18 03:41:41;;;;;;;20.85;12.55;;;12.40;93.20;;;;;;5034726;28;20125;-78
2022/12/18 03:44:31;;;;;;;19.80;12.52;;;12.40;93.20;;;;;;5051909;28;20483;-78
2022/12/18 03:47:24;;;;;;;17.40;11.93;;;12.40;93.00;;;;;;5052737;28;20033;-76
2022/12/18 03:49:55;;;;;;;17.58;12.68;;;12.30;93.00;;;;;;5052547;28;20122;-76
2022/12/18 03:52:36;;;;;;;20.52;12.05;;;12.30;93.30;;;;;;5051234;28;20033;-77
2022/12/18 03:55:04;;;;;;;17.05;12.00;;;12.30;93.30;;;;;;5052470;28;20064;-78
2022/12/18 03:57:31;;;;;;;17.30;11.93;;;12.30;93.40;;;;;;5052508;28;20111;-78
2022/12/18 04:00:11;;;;;;;20.25;12.32;;;12.30;93.40;;;;;;5034602;28;20064;-78
2022/12/18 04:02:40;;;;;;;18.00;12.98;;;12.30;93.30;;;;;;5052346;28;20098;-77
2022/12/18 04:05:08;;;;;;;16.83;12.13;;;12.30;93.40;;;;;;5050979;28;20354;-76
2022/12/18 04:07:34;;;;;;;17.55;12.48;;;12.30;93.40;;;;;;5034818;28;20106;-77
2022/12/18 04:10:02;;;;;;;17.42;12.68;;;12.30;93.40;;;;;;5050851;28;20120;-77
2022/12/18 04:12:30;;;;;;;19.05;12.75;;;12.30;93.40;;;;;;5051024;28;20045;-78
2022/12/18 04:14:56;;;;;;;17.17;13.02;;;12.30;93.30;;;;;;5052384;28;20033;-77
2022/12/18 04:17:22;;;;;;;18.33;12.93;;;12.40;93.40;;;;;;5052551;28;20527;-78
2022/12/18 04:19:48;;;;;;;22.10;13.73;;;12.30;93.30;;;;;;5052197;28;20044;-77
2022/12/18 04:22:14;;;;;;;16.75;12.15;;;12.30;93.30;;;;;;5052420;28;20029;-77
2022/12/18 04:24:39;;;;;;;18.63;13.38;;;12.30;93.40;;;;;;5052304;28;20041;-77
2022/12/18 04:27:06;;;;;;;16.70;12.98;;;12.20;93.30;;;;;;5052261;28;20099;-77
2022/12/18 04:29:32;;;;;;;20.10;13.43;;;12.20;93.40;;;;;;5034474;28;20040;-79
2022/12/18 04:31:58;;;;;;;18.35;13.48;;;12.10;93.40;;;;;;5052428;28;20033;-77
2022/12/18 04:34:24;;;;;;;16.75;12.23;;;12.10;93.40;;;;;;5052384;28;20030;-77
2022/12/18 04:36:49;;;;;;;18.88;12.80;;;12.10;93.60;;;;;;5034410;28;20520;-77
2022/12/18 04:39:15;;;;;;;19.92;13.15;;;12.10;93.50;;;;;;5052233;28;20044;-77
2022/12/18 04:41:41;;;;;;;17.42;12.40;;;12.10;93.50;;;;;;5052390;28;20047;-78
2022/12/18 04:44:07;;;;;;;18.52;12.32;;;12.10;93.50;;;;;;5034418;28;20551;-77
2022/12/18 04:46:32;;;;;;;17.85;11.90;;;12.10;93.70;;;;;;5052118;28;20033;-75
2022/12/18 04:48:58;;;;;;;15.73;11.70;;;12.10;93.70;;;;;;5034336;28;20499;-78
2022/12/18 04:51:24;;;;;;;16.42;12.50;;;12.10;93.60;;;;;;5034219;28;20453;-79
2022/12/18 04:53:49;;;;;;;15.63;11.88;;;12.00;93.60;;;;;;5052180;28;20079;-79
2022/12/18 04:56:15;;;;;;;15.85;12.38;;;12.00;93.70;;;;;;5056267;28;20044;-79
2022/12/18 04:58:43;;;;;;;18.25;12.07;;;12.00;93.60;;;;;;5038612;28;20037;-78
2022/12/18 05:01:11;;;;;;;15.38;11.45;;;12.00;93.80;;;;;;5038026;28;20083;-77
2022/12/18 05:03:37;;;;;;;15.38;11.75;;;12.00;93.90;;;;;;5038403;28;20564;-77
2022/12/18 05:06:05;;;;;;;15.80;11.70;;;12.00;93.80;;;;;;5056275;28;20400;-77
2022/12/18 05:08:31;;;;;;;18.77;11.38;;;12.00;93.90;;;;;;5038115;28;20036;-79
2022/12/18 05:11:02;;;;;;;17.63;11.50;;;12.00;93.90;;;;;;5037887;28;20044;-78
2022/12/18 05:13:28;;;;;;;16.15;11.18;;;11.90;93.90;;;;;;5054841;28;20037;-78
2022/12/18 05:15:55;;;;;;;18.48;11.07;;;11.80;93.80;;;;;;5055725;28;20037;-77
2022/12/18 05:18:21;;;;;;;16.00;10.60;;;11.80;94.10;;;;;;5037952;28;20037;-77
2022/12/18 05:20:47;;;;;;;16.17;10.85;;;11.80;94.00;;;;;;5054126;28;20037;-78
2022/12/18 05:23:13;;;;;;;13.95;10.18;;;11.80;94.00;;;;;;5055540;28;20036;-77
2022/12/18 05:25:38;;;;;;;15.93;9.95;;;11.80;94.00;;;;;;5055637;28;20523;-78
2022/12/18 05:28:04;;;;;;;17.70;10.80;;;11.80;93.90;;;;;;5055874;28;20063;-78
2022/12/18 05:30:30;;;;;;;16.40;9.65;;;11.80;93.90;;;;;;5037306;28;20124;-77
2022/12/18 05:32:55;;;;;;;16.33;10.60;;;11.80;94.00;;;;;;5037647;28;20040;-78
2022/12/18 05:35:21;;;;;;;15.73;10.38;;;11.80;94.00;;;;;;5055585;28;20507;-78
2022/12/18 05:37:47;;;;;;;12.82;9.52;;;11.80;94.00;;;;;;5037318;28;20439;-78
2022/12/18 05:40:13;;;;;;;17.92;9.68;;;11.80;94.10;;;;;;5037402;28;20041;-78
2022/12/18 05:42:39;;;;;;;14.10;9.93;;;11.80;94.20;;;;;;5055347;28;20044;-78
2022/12/18 05:45:06;;;;;;;13.65;10.07;;;11.80;94.20;;;;;;5037282;28;20043;-77
2022/12/18 05:47:31;;;;;;;15.15;9.13;;;11.70;93.90;;;;;;5055202;28;20033;-78
2022/12/18 05:49:57;;;;;;;15.73;9.13;;;11.70;94.10;;;;;;5055284;28;20037;-79
2022/12/18 05:52:23;;;;;;;14.77;10.13;;;11.70;94.20;;;;;;5037237;28;20497;-78
2022/12/18 05:54:49;;;;;;;16.23;9.30;;;11.70;94.00;;;;;;5037135;28;20033;-78
2022/12/18 05:57:14;;;;;;;14.68;9.05;;;11.70;94.20;;;;;;5054845;28;20508;-78
2022/12/18 05:59:40;;;;;;;13.07;9.23;;;11.70;94.10;;;;;;5054574;28;20090;-78
2022/12/18 06:02:06;;;;;;;12.52;9.25;;;11.70;94.10;;;;;;5054949;28;20045;-78
2022/12/18 06:04:32;;;;;;;11.93;8.68;;;11.70;94.10;;;;;;5054505;28;20033;-77
2022/12/18 06:06:58;;;;;;;14.75;8.52;;;11.70;94.40;;;;;;5036176;28;20126;-78
2022/12/18 06:09:24;;;;;;;16.35;8.70;;;11.70;94.10;;;;;;5054554;28;20037;-78
2022/12/18 06:11:51;;;;;;;12.68;8.63;;;11.70;94.00;;;;;;5054430;28;20116;-78
2022/12/18 06:14:17;;;;;;;13.13;8.05;;;11.70;94.00;;;;;;5036780;28;20033;-78
2022/12/18 06:16:43;;;;;;;12.27;8.15;;;11.70;94.00;;;;;;5037528;28;20036;-78
2022/12/18 06:19:15;;;;;;;10.45;8.20;;;11.70;94.00;;;;;;5054662;28;20119;-78
2022/12/18 06:21:41;;;;;;;12.00;8.13;;;11.70;94.20;;;;;;5036513;28;20045;-77
2022/12/18 06:24:07;;;;;;;12.48;7.78;;;11.70;94.10;;;;;;5054507;28;20388;-77
2022/12/18 06:26:33;;;;;;;12.95;7.78;;;11.70;94.10;;;;;;5054234;28;20091;-77
2022/12/18 06:28:59;;;;;;;12.60;7.30;;;11.70;94.10;;;;;;5054049;28;20075;-76
2022/12/18 06:31:25;;;;;;;10.88;7.18;;;11.70;94.00;;;;;;5054233;28;20037;-78
2022/12/18 06:33:51;;;;;;;11.90;7.65;;;11.70;94.00;;;;;;5054013;28;20111;-77
2022/12/18 06:36:17;;;;;;;11.85;7.35;;;11.70;93.90;;;;;;5054023;28;20489;-78
2022/12/18 06:38:43;;;;;;;14.45;6.53;;;11.70;93.80;;;;;;5053820;28;20025;-78
2022/12/18 06:41:14;;;;;;;9.57;6.20;;;11.70;93.90;;;;;;5053809;28;20408;-79
2022/12/18 06:43:40;;;;;;;9.68;6.28;;;11.70;93.40;;;;;;5054041;28;20049;-78
2022/12/18 06:46:07;;;;;;;12.60;6.07;;;11.70;93.90;;;;;;5035969;28;20037;-78
2022/12/18 06:48:33;;;;;;;13.90;7.22;;;11.70;93.90;;;;;;5053850;28;20484;-78
2022/12/18 06:50:59;;;;;;;9.77;6.50;;;11.70;93.90;;;;;;5036086;28;20401;-77
2022/12/18 06:53:25;;;;;;;13.80;6.10;;;11.70;93.90;;;;;;5054022;28;20029;-77
2022/12/18 06:55:51;;;;;;;9.63;5.50;;;11.70;93.90;;;;;;5053926;28;20041;-77
2022/12/18 06:58:17;;;;;;;10.35;5.45;;;11.70;93.90;;;;;;5035692;28;20385;-78
2022/12/18 07:00:42;;;;;;;11.55;5.85;;;11.70;94.00;;;;;;5035428;28;20033;-78
2022/12/18 07:03:08;;;;;;;7.68;5.47;;;11.80;93.90;;;;;;5053642;28;20079;-78
2022/12/18 07:05:34;;;;;;;9.88;5.90;;;11.90;93.80;;;;;;5035608;28;20439;-78
2022/12/18 07:08:00;;;;;;;10.40;5.95;;;11.90;93.90;;;;;;5053373;28;20119;-78
2022/12/18 07:10:26;;;;;;;10.40;5.40;;;12.00;93.70;;;;;;5053680;28;20095;-77
2022/12/18 07:12:51;;;;;;;10.45;5.55;;;12.00;93.60;;;;;;5053728;28;20540;-78
2022/12/18 07:15:17;;;;;;;10.80;5.60;;;12.00;93.60;;;;;;5035782;28;20039;-79
2022/12/18 07:17:43;;;;;;;7.45;5.07;;;12.10;93.60;;;;;;5035307;28;20377;-78
2022/12/18 07:20:09;;;;;;;11.15;5.68;;;12.10;93.50;;;;;;5053254;28;20126;-78
2022/12/18 07:22:35;;;;;;;9.25;5.45;;;12.30;93.40;;;;;;5053220;28;20032;-78
2022/12/18 07:25:00;;;;;;;8.90;4.93;;;12.30;93.30;;;;;;5052906;28;20405;-78
2022/12/18 07:27:26;;;;;;;10.13;5.00;;;12.30;93.40;;;;;;5035446;28;20063;-78
2022/12/18 07:29:52;;;;;;;8.85;4.90;;;12.40;93.30;;;;;;5053226;28;20029;-79
2022/12/18 07:32:18;;;;;;;7.57;5.20;;;12.50;93.20;;;;;;5053316;28;20033;-78
2022/12/18 07:34:43;;;;;;;9.63;4.95;;;12.50;93.00;;;;;;5053183;28;20036;-78
2022/12/18 07:37:09;;;;;;;8.13;5.53;;;12.50;93.00;;;;;;5035182;28;20035;-79
2022/12/18 07:39:35;;;;;;;9.43;5.75;;;12.50;93.00;;;;;;5035269;28;20040;-78
2022/12/18 07:44:44;;;;;;;;;;;12.60;92.80;;;;;;5053698;28;20067;-78
2022/12/18 07:47:10;;;;;;;11.27;5.68;;;12.70;92.70;;;;;;5053490;28;19913;-79
2022/12/18 07:49:36;;;;;;;10.23;5.75;;;12.70;92.70;;;;;;5052980;28;20055;-78
2022/12/18 07:52:02;;;;;;;11.20;6.13;;;12.70;92.80;;;;;;5035124;28;20407;-78
2022/12/18 07:54:27;;;;;;;10.25;6.10;;;12.70;92.70;;;;;;5052735;28;20091;-78
2022/12/18 07:56:53;;;;;;;13.63;6.57;;;12.70;92.80;;;;;;5034647;28;20037;-78
2022/12/18 07:59:19;;;;;;;12.68;6.82;;;12.70;92.70;;;;;;5052827;28;20108;-78
2022/12/18 08:01:44;;;;;;;9.45;6.40;;;12.70;92.60;;;;;;5048105;28;20056;-77
2022/12/18 08:04:10;;;;;;;9.40;5.88;;;12.70;92.60;;;;;;5054751;28;20086;-78
2022/12/18 08:06:36;;;;;;;21.63;6.80;;;12.70;92.40;;;;;;5072206;28;20068;-77
2022/12/18 08:09:02;;;;;;;13.38;6.28;;;12.70;92.30;;;;;;5072480;28;20036;-78
2022/12/18 08:11:28;;;;;;;13.25;6.30;;;12.70;92.50;;;;;;5068907;28;20075;-80
2022/12/18 08:13:54;;;;;;;9.27;6.05;;;12.70;92.40;;;;;;5072721;28;20060;-80
2022/12/18 08:16:22;;;;;;;10.30;6.45;;;12.70;92.60;;;;;;5054901;28;20439;-78
2022/12/18 08:18:48;;;;;;;11.15;6.30;;;12.70;92.40;;;;;;5054534;28;20033;-74
2022/12/18 08:21:21;;;;;;;12.25;6.85;;;12.70;92.40;;;;;;5053431;28;20415;-73
2022/12/18 08:23:47;;;;;;;14.55;8.60;;;12.70;92.50;;;;;;5054457;28;20480;-75
2022/12/18 08:26:14;;;;;;;11.75;8.48;;;12.70;92.40;;;;;;5068868;28;20073;-75
2022/12/18 08:28:40;;;;;;;14.45;6.95;;;12.80;92.40;;;;;;5072026;28;20106;-75
2022/12/18 08:31:06;;;;;;;10.70;6.53;;;12.80;92.40;;;;;;5055834;28;20040;-74
2022/12/18 08:33:32;;;;;;;14.27;7.38;;;12.90;92.30;;;;;;5058140;28;20120;-76
2022/12/18 08:35:59;;;;;;;19.02;10.73;;;13.00;92.20;;;;;;5075836;28;20503;-75
2022/12/18 08:38:25;;;;;;;12.15;6.88;;;13.00;92.30;;;;;;5055674;28;20474;-75
2022/12/18 08:41:00;;;;;;;11.93;5.95;;;13.10;92.20;;;;;;5064640;28;20037;-74
2022/12/18 08:46:09;;;;;;;;;;;13.10;92.10;;;;;;5056990;28;20123;-77
2022/12/18 08:48:35;;;;;;;9.50;6.18;;;13.10;92.00;;;;;;5038424;28;19932;-75
2022/12/18 08:51:01;;;;;;;9.57;5.43;;;13.10;92.00;;;;;;5038433;28;20060;-86
2022/12/18 08:53:27;;;;;;;9.93;5.82;;;13.10;92.00;;;;;;5056259;28;20118;-77
2022/12/18 08:55:53;;;;;;;10.45;6.18;;;13.10;91.90;;;;;;5056317;28;20029;-78
2022/12/18 08:58:19;;;;;;;13.63;6.90;;;13.10;91.90;;;;;;5042069;28;20024;-76
2022/12/18 09:00:45;;;;;;;9.30;6.00;;;13.20;91.90;;;;;;5079079;28;20045;-74
2022/12/18 09:03:17;;;;;;;10.65;6.07;;;13.20;91.70;;;;;;5074993;28;20055;-72
2022/12/18 09:05:42;;;;;;;11.40;6.22;;;13.30;91.80;;;;;;5098171;28;20028;-73
2022/12/18 09:08:08;;;;;;;9.60;5.97;;;13.30;91.70;;;;;;5065742;28;20024;-74
2022/12/18 09:10:40;;;;;;;9.95;5.75;;;13.30;91.70;;;;;;5076373;28;20037;-75
2022/12/18 09:13:06;;;;;;;11.20;5.65;;;13.40;91.70;;;;;;5075785;28;20031;-75
2022/12/18 09:15:32;;;;;;;13.25;6.43;;;13.40;91.60;;;;;;5057718;28;20109;-72
2022/12/18 09:17:57;;;;;;;8.48;5.97;;;13.50;91.60;;;;;;5057649;28;20400;-73
2022/12/18 09:20:24;;;;;;;11.35;6.03;;;13.60;91.70;;;;;;5072980;28;20051;-72
2022/12/18 09:22:49;;;;;;;12.65;5.95;;;13.70;91.50;;;;;;5075412;28;20124;-75
2022/12/18 09:25:15;;;;;;;8.95;5.47;;;13.80;91.40;;;;;;5075197;28;20119;-71
2022/12/18 09:27:41;;;;;;;11.07;5.20;;;13.80;91.30;;;;;;5075269;28;20446;-76
2022/12/18 09:30:07;;;;;;;10.00;5.40;;;13.80;91.30;;;;;;5074961;28;20483;-69
2022/12/18 09:32:33;;;;;;;8.65;5.13;;;13.90;91.20;;;;;;5058269;28;20448;-68
2022/12/18 09:34:59;;;;;;;7.40;4.82;;;13.90;91.20;;;;;;5074653;28;20033;-67
2022/12/18 09:37:25;;;;;;;10.52;5.50;;;14.00;91.10;;;;;;5074733;28;20036;-72
2022/12/18 09:39:50;;;;;;;10.32;5.70;;;14.10;91.10;;;;;;5056839;28;20551;-68
2022/12/18 09:42:21;;;;;;;13.35;5.10;;;14.20;91.10;;;;;;5073597;28;20044;-71
2022/12/18 09:44:53;;;;;;;7.63;4.40;;;14.30;91.00;;;;;;5074626;28;20044;-68
2022/12/18 09:47:34;;;;;;;11.88;4.70;;;14.40;90.90;;;;;;5056153;28;20415;-69
2022/12/18 09:50:04;;;;;;;7.30;4.15;;;14.40;90.80;;;;;;5074236;28;20037;-69
2022/12/18 09:52:45;;;;;;;13.48;5.03;;;14.50;90.60;;;;;;5073981;28;20028;-69
2022/12/18 09:55:23;;;;;;;7.85;4.85;;;14.60;90.60;;;;;;5067549;28;20083;-69
2022/12/18 09:57:54;;;;;;;7.93;4.20;;;14.70;90.60;;;;;;5071050;28;20432;-70
2022/12/18 10:00:24;;;;;;;9.65;4.10;;;14.70;90.40;;;;;;5073395;28;20052;-69
2022/12/18 10:03:00;;;;;;;10.20;5.18;;;14.80;90.20;;;;;;5074083;28;20361;-67
2022/12/18 10:05:42;;;;;;;13.73;4.65;;;14.90;90.20;;;;;;5073873;28;20044;-66
2022/12/18 10:08:19;;;;;;;9.93;4.28;;;14.90;89.40;;;;;;5055519;28;20039;-69
2022/12/18 10:10:52;;;;;;;7.88;3.90;;;15.00;89.10;;;;;;5073880;28;20072;-69
2022/12/18 10:13:30;;;;;;;8.27;3.90;;;15.10;89.10;;;;;;5056011;28;20040;-69
2022/12/18 10:16:17;;;;;;;8.40;4.25;;;15.10;88.80;;;;;;5073326;28;20025;-69
2022/12/18 10:19:04;;;;;;;9.52;3.75;;;15.20;87.50;;;;;;5072424;28;20071;-71
2022/12/18 10:21:33;;;;;;;8.82;4.05;;;15.30;88.30;;;;;;5054331;28;20059;-67
2022/12/18 10:24:42;;;;;;;10.80;4.32;;;15.30;88.20;;;;;;5055578;28;20442;-68
2022/12/18 10:27:21;;;;;;;9.45;3.97;;;15.40;87.80;;;;;;5043204;28;20362;-68
2022/12/18 10:29:47;;;;;;;8.55;4.72;;;15.40;88.20;;;;;;5055288;28;20514;-68
2022/12/18 10:32:25;;;;;;;9.60;4.25;;;15.40;88.00;;;;;;5055932;28;20114;-68
2022/12/18 10:34:53;;;;;;;12.55;4.97;;;15.50;87.80;;;;;;5073526;28;20044;-70
2022/12/18 10:37:22;;;;;;;11.63;4.80;;;15.60;87.90;;;;;;5073963;28;20459;-68
2022/12/18 10:40:13;;;;;;;10.77;6.25;;;15.70;87.80;;;;;;5073675;28;20396;-68
2022/12/18 10:42:41;;;;;;;10.48;5.00;;;15.80;87.30;;;;;;5073597;28;20036;-68
2022/12/18 10:45:12;;;;;;;9.63;5.05;;;15.90;87.10;;;;;;5073257;28;20029;-69
2022/12/18 10:47:44;;;;;;;9.32;5.18;;;16.00;86.50;;;;;;5073593;28;20425;-68
2022/12/18 10:50:23;;;;;;;8.55;4.20;;;16.00;86.50;;;;;;5054984;28;20064;-68
2022/12/18 10:53:02;;;;;;;9.98;5.00;;;16.00;86.00;;;;;;5054934;28;20402;-69
2022/12/18 10:55:33;;;;;;;6.95;3.97;;;16.10;85.80;;;;;;5073406;28;20032;-69
2022/12/18 10:58:33;;;;;;;8.88;4.60;;;16.20;84.90;;;;;;5073224;28;20112;-69
2022/12/18 11:01:08;;;;;;;12.77;3.90;;;16.20;84.80;;;;;;5072600;28;20403;-68
2022/12/18 11:03:52;;;;;;;7.03;3.17;;;16.10;85.10;;;;;;5054823;28;20025;-69
2022/12/18 11:06:22;;;;;;;10.23;3.30;;;16.00;84.40;;;;;;5073273;28;20221;-67
2022/12/18 11:09:01;;;;;;;8.80;3.78;;;16.00;84.50;;;;;;5055815;28;20036;-68
2022/12/18 11:11:28;;;;;;;6.00;2.80;;;16.00;84.60;;;;;;5073633;28;20112;-70
2022/12/18 11:14:15;;;;;;;7.65;3.47;;;16.00;84.20;;;;;;5055708;28;20488;-67
2022/12/18 11:16:46;;;;;;;8.05;4.03;;;16.00;84.20;;;;;;5073497;28;20036;-69
2022/12/18 11:19:26;;;;;;;7.80;3.25;;;16.10;84.00;;;;;;5073150;28;20056;-66
2022/12/18 11:21:51;;;;;;;6.85;2.88;;;16.20;83.60;;;;;;5073048;28;20063;-68
2022/12/18 11:24:34;;;;;;;7.75;3.45;;;16.40;83.10;;;;;;5072814;28;20495;-67
2022/12/18 11:27:05;;;;;;;6.50;3.40;;;16.50;83.10;;;;;;5054573;28;20052;-68
2022/12/18 11:29:36;;;;;;;8.98;4.10;;;16.70;82.40;;;;;;5073107;28;20347;-68
2022/12/18 11:32:29;;;;;;;6.45;3.25;;;16.90;82.00;;;;;;5072999;28;20037;-67
2022/12/18 11:35:21;;;;;;;5.47;3.13;;;17.00;81.40;;;;;;5073174;28;20242;-69
2022/12/18 11:38:25;;;;;;;9.60;3.35;;;17.10;80.80;;;;;;5049477;28;20087;-68
2022/12/18 11:41:14;;;;;;;8.50;3.03;;;17.10;80.90;;;;;;5072894;28;20054;-68
2022/12/18 11:44:00;;;;;;;6.40;3.20;;;17.20;80.70;;;;;;5073217;28;20112;-68
2022/12/18 11:46:37;;;;;;;5.70;2.80;;;17.30;80.80;;;;;;5073153;28;20116;-68
2022/12/18 11:49:15;;;;;;;7.85;2.70;;;17.30;80.70;;;;;;5073151;28;20036;-68
2022/12/18 11:51:48;;;;;;;6.35;2.67;;;17.30;80.10;;;;;;5073272;28;20032;-69
2022/12/18 11:54:15;;;;;;;6.85;2.63;;;17.20;80.10;;;;;;5073832;28;20047;-68
2022/12/18 11:56:49;;;;;;;8.48;2.90;;;17.10;79.90;;;;;;5055660;28;20075;-69
2022/12/18 11:59:47;;;;;;;9.02;2.65;;;17.10;79.50;;;;;;5056618;28;20036;-68
2022/12/18 12:02:37;;;;;;;4.85;2.38;;;17.20;79.40;;;;;;5064533;28;20040;-68
2022/12/18 12:05:12;;;;;;;7.03;2.63;;;17.20;79.30;;;;;;5083600;28;20056;-69
2022/12/18 12:07:59;;;;;;;6.45;3.00;;;17.20;79.10;;;;;;5055729;28;20028;-68
2022/12/18 12:10:30;;;;;;;4.63;2.47;;;17.30;79.00;;;;;;5055182;28;20054;-68
2022/12/18 12:13:09;;;;;;;8.75;2.50;;;17.30;79.00;;;;;;5054574;28;20032;-68
2022/12/18 12:16:09;;;;;;;8.98;2.65;;;17.30;78.40;;;;;;5072387;28;20112;-68
2022/12/18 12:19:04;;;;;;;5.07;2.42;;;17.40;77.90;;;;;;5054553;28;20115;-68
2022/12/18 12:21:46;;;;;;;5.55;2.50;;;17.50;77.60;;;;;;5072369;28;20048;-68
2022/12/18 12:24:27;;;;;;;6.10;2.63;;;17.50;77.70;;;;;;5061677;28;20037;-68
2022/12/18 12:27:02;;;;;;;4.47;2.10;;;17.60;77.20;;;;;;5052135;28;20557;-67
2022/12/18 12:29:55;;;;;;;5.15;1.90;;;17.60;77.10;;;;;;5052173;28;20033;-71
2022/12/18 12:32:39;;;;;;;4.65;2.10;;;17.60;76.50;;;;;;5057398;28;20036;-72
2022/12/18 12:35:26;;;;;;;4.50;2.03;;;17.60;76.40;;;;;;5052733;28;20162;-70
2022/12/18 12:38:17;;;;;;;5.25;1.95;;;17.70;76.30;;;;;;5070612;28;20368;-71
2022/12/18 12:40:52;;;;;;;8.63;3.30;;;17.70;75.90;;;;;;5052330;28;20048;-71
2022/12/18 12:43:27;;;;;;;12.75;6.43;;;17.80;76.20;;;;;;5051910;28;20032;-71
2022/12/18 12:45:59;;;;;;;6.75;2.88;;;17.90;76.30;;;;;;5067797;28;20128;-73
2022/12/18 12:48:25;;;;;;;6.50;3.17;;;18.00;76.00;;;;;;5071217;28;20029;-68
2022/12/18 12:50:52;;;;;;;8.15;3.33;;;18.00;75.80;;;;;;5071578;28;20373;-73
2022/12/18 12:53:28;;;;;;;4.38;2.00;;;18.10;75.70;;;;;;5070104;28;20526;-73
2022/12/18 12:55:55;;;;;;;4.93;2.55;;;18.10;75.30;;;;;;5071677;28;20129;-72
2022/12/18 12:59:01;;;;;;;5.97;2.58;;;18.10;75.00;;;;;;5053308;28;20051;-74
2022/12/18 13:01:41;;;;;;;4.13;1.85;;;18.10;74.90;;;;;;5061270;28;20045;-73